Time;durP1;ratioP1;P1;durP2;ratioP2;P2;SDS_P1;SDS_P2;PMS_P1;PMS_P2;Temp;Humidity;BMP_temperature;BMP_pressure;BME280_temperature;BME280_humidity;BME280_pressure;Samples;Min_cycle;Max_cycle;Signal;HPM_P1;HPM_P2
2024/01/02 00:00:47;;;;;;;;;;;;;;;;;;107320;1253;62887;-80
2024/01/02 00:03:34;;;;;;;;;;;;;;;;;;107350;1256;61705;-80
2024/01/02 00:06:00;;;;;;;;;;;;;;;;;;107375;1253;60254;-80
2024/01/02 00:08:27;;;;;;;;;;;;;;;;;;106921;1254;60646;-80
2024/01/02 00:10:53;;;;;;;;;;;;;;;;;;106815;1254;60546;-80
2024/01/02 00:13:19;;;;;;;;;;;;;;;;;;106828;1256;61733;-81
2024/01/02 00:15:46;;;;;;;;;;;;;;;;;;106939;1256;60611;-81
2024/01/02 00:18:12;;;;;;;;;;;;;;;;;;106772;1253;62491;-80
2024/01/02 00:20:39;;;;;;;;;;;;;;;;;;106951;1254;60710;-81
2024/01/02 00:23:05;;;;;;;;;;;;;;;;;;107335;1254;60151;-80
2024/01/02 00:25:32;;;;;;;;;;;;;;;;;;107343;1254;63007;-80
2024/01/02 00:27:58;;;;;;;;;;;;;;;;;;107432;1254;60665;-80
2024/01/02 00:30:25;;;;;;;;;;;;;;;;;;107382;1257;60619;-81
2024/01/02 00:32:51;;;;;;;;;;;;;;;;;;106894;1257;60586;-81
2024/01/02 00:35:17;;;;;;;;;;;;;;;;;;106909;1256;61702;-80
2024/01/02 00:37:44;;;;;;;;;;;;;;;;;;106863;1254;60627;-79
2024/01/02 00:40:10;;;;;;;;;;;;;;;;;;106899;1257;61807;-80
2024/01/02 00:42:37;;;;;;;;;;;;;;;;;;106864;1254;60702;-80
2024/01/02 00:45:05;;;;;;;;;;;;;;;;;;106923;1256;62911;-80
2024/01/02 00:47:31;;;;;;;;;;;;;;;;;;106940;1253;61513;-80
2024/01/02 00:49:58;;;;;;;;;;;;;;;;;;106863;1253;61453;-80
2024/01/02 00:52:24;;;;;;;;;;;;;;;;;;106879;1254;61614;-80
2024/01/02 00:54:52;;;;;;;;;;;;;;;;;;106820;1254;61601;-80
2024/01/02 00:57:18;;;;;;;;;;;;;;;;;;106855;1254;62843;-80
2024/01/02 00:59:45;;;;;;;;;;;;;;;;;;106830;1256;62839;-80
2024/01/02 01:02:11;;;;;;;;;;;;;;;;;;106832;1256;61667;-80
2024/01/02 01:04:37;;;;;;;;;;;;;;;;;;106826;1256;62959;-80
2024/01/02 01:07:04;;;;;;;;;;;;;;;;;;106886;1254;62891;-80
2024/01/02 01:09:30;;;;;;;;;;;;;;;;;;106928;1257;60572;-80
2024/01/02 01:11:57;;;;;;;;;;;;;;;;;;106854;1255;60695;-80
2024/01/02 01:14:23;;;;;;;;;;;;;;;;;;106817;1253;60704;-80
2024/01/02 01:16:49;;;;;;;;;;;;;;;;;;106860;1256;60062;-80
2024/01/02 01:19:16;;;;;;;;;;;;;;;;;;106900;1254;60660;-80
2024/01/02 01:21:42;;;;;;;;;;;;;;;;;;106896;1254;60222;-80
2024/01/02 01:24:08;;;;;;;;;;;;;;;;;;106829;1256;61661;-80
2024/01/02 01:26:35;;;;;;;;;;;;;;;;;;106802;1254;60507;-80
2024/01/02 01:29:02;;;;;;;;;;;;;;;;;;106797;1254;60542;-81
2024/01/02 01:31:29;;;;;;;;;;;;;;;;;;106856;1254;62917;-80
2024/01/02 01:33:55;;;;;;;;;;;;;;;;;;106849;1255;62464;-80
2024/01/02 01:36:22;;;;;;;;;;;;;;;;;;106879;1254;62466;-81
2024/01/02 01:38:48;;;;;;;;;;;;;;;;;;106956;1257;60705;-82
2024/01/02 01:41:15;;;;;;;;;;;;;;;;;;106889;1254;62878;-80
2024/01/02 01:43:41;;;;;;;;;;;;;;;;;;106880;1256;62930;-81
2024/01/02 01:46:07;;;;;;;;;;;;;;;;;;106908;1255;60708;-81
2024/01/02 01:48:34;;;;;;;;;;;;;;;;;;106900;1254;61686;-81
2024/01/02 01:51:00;;;;;;;;;;;;;;;;;;106921;1254;60964;-80
2024/01/02 01:53:27;;;;;;;;;;;;;;;;;;106884;1253;60547;-80
2024/01/02 01:55:53;;;;;;;;;;;;;;;;;;106863;1254;61194;-81
2024/01/02 01:58:19;;;;;;;;;;;;;;;;;;107015;1254;61565;-80
2024/01/02 02:00:46;;;;;;;;;;;;;;;;;;106988;1254;61605;-80
2024/01/02 02:03:12;;;;;;;;;;;;;;;;;;106865;1254;61999;-81
2024/01/02 02:05:38;;;;;;;;;;;;;;;;;;106770;1256;60647;-80
2024/01/02 02:08:05;;;;;;;;;;;;;;;;;;106827;1254;60016;-80
2024/01/02 02:10:31;;;;;;;;;;;;;;;;;;106845;1254;61693;-80
2024/01/02 02:12:57;;;;;;;;;;;;;;;;;;106910;1254;62723;-80
2024/01/02 02:15:24;;;;;;;;;;;;;;;;;;106829;1254;61547;-80
2024/01/02 02:17:50;;;;;;;;;;;;;;;;;;106835;1255;60588;-80
2024/01/02 02:20:17;;;;;;;;;;;;;;;;;;106835;1254;60553;-80
2024/01/02 02:22:43;;;;;;;;;;;;;;;;;;106833;1255;60490;-80
2024/01/02 02:25:10;;;;;;;;;;;;;;;;;;107872;1253;62478;-80
2024/01/02 02:27:36;;;;;;;;;;;;;;;;;;106777;1254;61668;-81
2024/01/02 02:30:03;;;;;;;;;;;;;;;;;;106820;1253;61667;-80
2024/01/02 02:32:29;;;;;;;;;;;;;;;;;;106804;1253;61598;-80
2024/01/02 02:34:56;;;;;;;;;;;;;;;;;;106807;1254;62967;-80
2024/01/02 02:37:22;;;;;;;;;;;;;;;;;;106764;1254;60707;-80
2024/01/02 02:39:48;;;;;;;;;;;;;;;;;;108996;1253;59981;-80
2024/01/02 02:42:15;;;;;;;;;;;;;;;;;;109536;1254;60030;-80
2024/01/02 02:44:43;;;;;;;;;;;;;;;;;;109489;1253;59912;-81
2024/01/02 02:47:09;;;;;;;;;;;;;;;;;;108164;1253;60635;-81
2024/01/02 02:49:36;;;;;;;;;;;;;;;;;;108683;1254;60552;-80
2024/01/02 02:52:02;;;;;;;;;;;;;;;;;;109502;1253;59679;-81
2024/01/02 02:54:29;;;;;;;;;;;;;;;;;;109518;1254;59975;-80
2024/01/02 02:56:56;;;;;;;;;;;;;;;;;;109496;1253;59681;-80
2024/01/02 02:59:22;;;;;;;;;;;;;;;;;;107726;1254;60628;-80
2024/01/02 03:01:48;;;;;;;;;;;;;;;;;;107435;1254;61044;-80
2024/01/02 03:04:15;;;;;;;;;;;;;;;;;;107447;1254;60014;-80
2024/01/02 03:06:41;;;;;;;;;;;;;;;;;;106857;1254;60622;-80
2024/01/02 03:09:08;;;;;;;;;;;;;;;;;;107480;1254;60811;-80
2024/01/02 03:11:35;;;;;;;;;;;;;;;;;;106833;1254;61685;-79
2024/01/02 03:14:01;;;;;;;;;;;;;;;;;;106835;1254;60605;-80
2024/01/02 03:16:27;;;;;;;;;;;;;;;;;;106830;1253;62974;-80
2024/01/02 03:18:54;;;;;;;;;;;;;;;;;;106817;1254;60544;-80
2024/01/02 03:21:27;;;;;;;;;;;;;;;;;;106769;1253;60706;-81
2024/01/02 03:23:54;;;;;;;;;;;;;;;;;;106775;1254;60686;-80
2024/01/02 03:26:20;;;;;;;;;;;;;;;;;;106856;1254;62933;-80
2024/01/02 03:28:47;;;;;;;;;;;;;;;;;;106908;1254;61754;-80
2024/01/02 03:31:13;;;;;;;;;;;;;;;;;;106860;1254;61663;-80
2024/01/02 03:33:39;;;;;;;;;;;;;;;;;;107683;1253;61536;-80
2024/01/02 03:36:06;;;;;;;;;;;;;;;;;;109528;1252;59659;-80
2024/01/02 03:38:32;;;;;;;;;;;;;;;;;;109520;1254;59739;-80
2024/01/02 03:40:58;;;;;;;;;;;;;;;;;;109449;1253;59694;-80
2024/01/02 03:43:25;;;;;;;;;;;;;;;;;;109469;1252;59675;-80
2024/01/02 03:45:51;;;;;;;;;;;;;;;;;;109502;1253;59870;-80
2024/01/02 03:48:17;;;;;;;;;;;;;;;;;;109519;1253;59731;-80
2024/01/02 03:50:44;;;;;;;;;;;;;;;;;;109477;1254;59793;-81
2024/01/02 03:53:10;;;;;;;;;;;;;;;;;;107158;1255;61292;-80
2024/01/02 03:55:36;;;;;;;;;;;;;;;;;;106783;1254;60644;-80
2024/01/02 03:58:03;;;;;;;;;;;;;;;;;;106901;1257;60640;-80
2024/01/02 04:00:29;;;;;;;;;;;;;;;;;;106880;1254;60727;-80
2024/01/02 04:02:56;;;;;;;;;;;;;;;;;;106923;1254;60735;-81
2024/01/02 04:05:22;;;;;;;;;;;;;;;;;;106863;1254;60612;-80
2024/01/02 04:07:49;;;;;;;;;;;;;;;;;;106880;1254;60702;-80
2024/01/02 04:10:15;;;;;;;;;;;;;;;;;;106848;1254;60643;-80
2024/01/02 04:12:41;;;;;;;;;;;;;;;;;;106923;1254;60181;-80
2024/01/02 04:15:08;;;;;;;;;;;;;;;;;;106958;1252;62136;-80
2024/01/02 04:17:34;;;;;;;;;;;;;;;;;;108021;1254;62821;-80
2024/01/02 04:20:00;;;;;;;;;;;;;;;;;;109457;1253;59891;-80
2024/01/02 04:22:27;;;;;;;;;;;;;;;;;;108692;1254;60693;-80
2024/01/02 04:24:53;;;;;;;;;;;;;;;;;;107024;1254;61716;-80
2024/01/02 04:27:19;;;;;;;;;;;;;;;;;;106885;1254;61580;-80
2024/01/02 04:29:46;;;;;;;;;;;;;;;;;;106944;1254;61617;-80
2024/01/02 04:32:12;;;;;;;;;;;;;;;;;;106880;1256;60054;-80
2024/01/02 04:34:39;;;;;;;;;;;;;;;;;;106906;1254;60476;-80
2024/01/02 04:37:05;;;;;;;;;;;;;;;;;;106900;1254;61630;-80
2024/01/02 04:39:32;;;;;;;;;;;;;;;;;;106916;1254;60633;-80
2024/01/02 04:41:58;;;;;;;;;;;;;;;;;;106898;1254;60669;-80
2024/01/02 04:44:24;;;;;;;;;;;;;;;;;;106885;1254;61622;-81
2024/01/02 04:46:51;;;;;;;;;;;;;;;;;;106878;1254;60644;-79
2024/01/02 04:49:18;;;;;;;;;;;;;;;;;;108372;1252;60737;-80
2024/01/02 04:51:44;;;;;;;;;;;;;;;;;;109479;1253;59812;-80
2024/01/02 04:54:11;;;;;;;;;;;;;;;;;;109490;1253;59980;-80
2024/01/02 04:56:37;;;;;;;;;;;;;;;;;;109063;1254;60711;-80
2024/01/02 04:59:04;;;;;;;;;;;;;;;;;;106825;1254;60524;-80
2024/01/02 05:01:30;;;;;;;;;;;;;;;;;;106841;1256;60528;-80
2024/01/02 05:03:57;;;;;;;;;;;;;;;;;;106865;1256;60616;-81
2024/01/02 05:06:23;;;;;;;;;;;;;;;;;;106801;1253;61233;-80
2024/01/02 05:08:50;;;;;;;;;;;;;;;;;;106834;1254;60636;-80
2024/01/02 05:11:16;;;;;;;;;;;;;;;;;;106779;1254;60304;-80
2024/01/02 05:13:42;;;;;;;;;;;;;;;;;;106859;1254;60496;-80
2024/01/02 05:16:09;;;;;;;;;;;;;;;;;;106979;1251;60645;-80
2024/01/02 05:18:36;;;;;;;;;;;;;;;;;;106999;1251;60718;-80
2024/01/02 05:21:02;;;;;;;;;;;;;;;;;;107059;1251;60650;-79
2024/01/02 05:23:28;;;;;;;;;;;;;;;;;;106955;1252;60021;-80
2024/01/02 05:25:55;;;;;;;;;;;;;;;;;;106942;1252;60648;-80
2024/01/02 05:28:21;;;;;;;;;;;;;;;;;;106944;1251;60285;-80
2024/01/02 05:30:48;;;;;;;;;;;;;;;;;;106974;1251;62844;-80
2024/01/02 05:33:14;;;;;;;;;;;;;;;;;;107035;1251;60062;-80
2024/01/02 05:35:40;;;;;;;;;;;;;;;;;;107048;1251;61077;-80
2024/01/02 05:38:07;;;;;;;;;;;;;;;;;;107002;1251;60070;-80
2024/01/02 05:40:33;;;;;;;;;;;;;;;;;;107016;1252;61565;-80
2024/01/02 05:43:00;;;;;;;;;;;;;;;;;;106906;1254;60676;-80
2024/01/02 05:45:26;;;;;;;;;;;;;;;;;;106856;1254;60572;-80
2024/01/02 05:47:52;;;;;;;;;;;;;;;;;;106912;1253;60553;-80
2024/01/02 05:50:19;;;;;;;;;;;;;;;;;;107482;1254;62078;-80
2024/01/02 05:52:46;;;;;;;;;;;;;;;;;;107403;1254;61731;-79
2024/01/02 05:55:12;;;;;;;;;;;;;;;;;;107439;1254;60687;-80
2024/01/02 05:57:38;;;;;;;;;;;;;;;;;;106853;1254;62926;-80
2024/01/02 06:00:05;;;;;;;;;;;;;;;;;;106866;1253;61855;-80
2024/01/02 06:02:32;;;;;;;;;;;;;;;;;;106982;1254;62740;-80
2024/01/02 06:04:58;;;;;;;;;;;;;;;;;;107048;1254;60580;-80
2024/01/02 06:07:25;;;;;;;;;;;;;;;;;;107175;1254;61869;-80
2024/01/02 06:09:51;;;;;;;;;;;;;;;;;;106925;1254;62812;-81
2024/01/02 06:12:18;;;;;;;;;;;;;;;;;;106854;1254;63034;-81
2024/01/02 06:14:44;;;;;;;;;;;;;;;;;;108910;1251;62802;-81
2024/01/02 06:17:12;;;;;;;;;;;;;;;;;;109485;1253;59650;-81
2024/01/02 06:19:38;;;;;;;;;;;;;;;;;;109451;1253;59729;-80
2024/01/02 06:22:04;;;;;;;;;;;;;;;;;;109473;1252;59711;-81
2024/01/02 06:24:31;;;;;;;;;;;;;;;;;;109469;1253;59689;-81
2024/01/02 06:26:57;;;;;;;;;;;;;;;;;;109472;1253;59740;-81
2024/01/02 06:29:25;;;;;;;;;;;;;;;;;;109489;1252;59820;-80
2024/01/02 06:31:51;;;;;;;;;;;;;;;;;;109347;1253;176714;-80
2024/01/02 06:34:17;;;;;;;;;;;;;;;;;;109445;1253;59855;-81
2024/01/02 06:36:44;;;;;;;;;;;;;;;;;;109443;1253;59663;-80
2024/01/02 06:39:10;;;;;;;;;;;;;;;;;;109367;1253;59685;-80
2024/01/02 06:41:36;;;;;;;;;;;;;;;;;;109452;1253;60027;-80
2024/01/02 06:44:03;;;;;;;;;;;;;;;;;;109369;1253;59641;-80
2024/01/02 06:46:30;;;;;;;;;;;;;;;;;;109494;1251;59660;-80
2024/01/02 06:48:56;;;;;;;;;;;;;;;;;;109545;1254;59696;-80
2024/01/02 06:51:23;;;;;;;;;;;;;;;;;;107920;1254;60066;-80
2024/01/02 06:53:49;;;;;;;;;;;;;;;;;;106985;1253;61492;-80
2024/01/02 06:56:15;;;;;;;;;;;;;;;;;;107101;1254;61730;-80
2024/01/02 06:58:44;;;;;;;;;;;;;;;;;;107156;1255;61550;-80
2024/01/02 07:01:10;;;;;;;;;;;;;;;;;;107000;1255;60634;-79
2024/01/02 07:03:37;;;;;;;;;;;;;;;;;;106829;1253;61598;-80
2024/01/02 07:06:03;;;;;;;;;;;;;;;;;;106936;1253;60723;-80
2024/01/02 07:08:30;;;;;;;;;;;;;;;;;;108600;1254;59913;-80
2024/01/02 07:10:56;;;;;;;;;;;;;;;;;;109473;1253;60002;-80
2024/01/02 07:13:23;;;;;;;;;;;;;;;;;;109495;1253;60103;-80
2024/01/02 07:15:50;;;;;;;;;;;;;;;;;;109450;1253;59692;-80
2024/01/02 07:18:16;;;;;;;;;;;;;;;;;;109473;1254;59698;-80
2024/01/02 07:20:43;;;;;;;;;;;;;;;;;;109446;1253;60023;-80
2024/01/02 07:23:09;;;;;;;;;;;;;;;;;;109335;1254;59916;-79
2024/01/02 07:25:36;;;;;;;;;;;;;;;;;;109476;1253;60031;-81
2024/01/02 07:28:02;;;;;;;;;;;;;;;;;;109430;1253;60129;-80
2024/01/02 07:30:29;;;;;;;;;;;;;;;;;;109459;1253;59756;-80
2024/01/02 07:32:55;;;;;;;;;;;;;;;;;;109382;1252;59926;-80
2024/01/02 07:35:21;;;;;;;;;;;;;;;;;;109436;1253;59670;-81
2024/01/02 07:37:48;;;;;;;;;;;;;;;;;;109430;1254;59950;-81
2024/01/02 07:40:15;;;;;;;;;;;;;;;;;;109449;1253;62663;-80
2024/01/02 07:42:41;;;;;;;;;;;;;;;;;;109394;1253;59764;-81
2024/01/02 07:45:07;;;;;;;;;;;;;;;;;;109402;1252;59877;-80
2024/01/02 07:47:34;;;;;;;;;;;;;;;;;;109390;1254;59817;-80
2024/01/02 07:50:04;;;;;;;;;;;;;;;;;;109431;1252;59729;-80
2024/01/02 07:52:30;;;;;;;;;;;;;;;;;;109384;1254;62375;-80
2024/01/02 07:54:57;;;;;;;;;;;;;;;;;;109396;1256;59923;-80
2024/01/02 07:57:25;;;;;;;;;;;;;;;;;;109400;1252;59683;-80
2024/01/02 07:59:51;;;;;;;;;;;;;;;;;;109442;1253;59979;-81
2024/01/02 08:02:18;;;;;;;;;;;;;;;;;;109446;1252;59890;-80
2024/01/02 08:04:44;;;;;;;;;;;;;;;;;;109450;1253;59649;-80
2024/01/02 08:07:10;;;;;;;;;;;;;;;;;;109489;1254;59952;-80
2024/01/02 08:09:37;;;;;;;;;;;;;;;;;;109457;1253;59630;-80
2024/01/02 08:12:03;;;;;;;;;;;;;;;;;;109427;1254;59979;-80
2024/01/02 08:14:30;;;;;;;;;;;;;;;;;;109435;1253;60101;-80
2024/01/02 08:16:56;;;;;;;;;;;;;;;;;;109481;1253;59697;-81
2024/01/02 08:19:22;;;;;;;;;;;;;;;;;;109483;1253;59739;-81
2024/01/02 08:21:49;;;;;;;;;;;;;;;;;;109430;1253;59919;-80
2024/01/02 08:24:15;;;;;;;;;;;;;;;;;;109434;1252;59861;-80
2024/01/02 08:26:42;;;;;;;;;;;;;;;;;;109345;1254;59925;-81
2024/01/02 08:29:08;;;;;;;;;;;;;;;;;;109122;1253;60632;-80
2024/01/02 08:31:35;;;;;;;;;;;;;;;;;;107050;1253;61611;-79
2024/01/02 08:34:02;;;;;;;;;;;;;;;;;;106991;1252;60699;-81
2024/01/02 08:36:29;;;;;;;;;;;;;;;;;;106971;1253;60640;-80
2024/01/02 08:38:56;;;;;;;;;;;;;;;;;;106992;1252;60617;-80
2024/01/02 08:41:23;;;;;;;;;;;;;;;;;;107537;1253;62792;-81
2024/01/02 08:43:49;;;;;;;;;;;;;;;;;;106932;1255;60552;-81
2024/01/02 08:46:16;;;;;;;;;;;;;;;;;;106934;1253;62784;-81
2024/01/02 08:48:42;;;;;;;;;;;;;;;;;;106988;1254;60078;-81
2024/01/02 08:51:09;;;;;;;;;;;;;;;;;;106958;1253;60061;-81
2024/01/02 08:53:35;;;;;;;;;;;;;;;;;;106979;1253;60653;-81
2024/01/02 08:56:02;;;;;;;;;;;;;;;;;;106840;1254;60031;-80
2024/01/02 08:58:28;;;;;;;;;;;;;;;;;;107087;1256;60725;-80
2024/01/02 09:00:55;;;;;;;;;;;;;;;;;;107032;1254;60174;-80
2024/01/02 09:03:21;;;;;;;;;;;;;;;;;;108391;1252;60644;-80
2024/01/02 09:05:48;;;;;;;;;;;;;;;;;;109481;1253;59801;-81
2024/01/02 09:08:14;;;;;;;;;;;;;;;;;;109499;1251;60002;-80
2024/01/02 09:10:40;;;;;;;;;;;;;;;;;;108444;1253;61785;-80
2024/01/02 09:13:07;;;;;;;;;;;;;;;;;;106903;1253;60594;-80
2024/01/02 09:15:35;;;;;;;;;;;;;;;;;;107261;1253;60063;-81
2024/01/02 09:18:01;;;;;;;;;;;;;;;;;;107168;1252;62918;-80
2024/01/02 09:20:28;;;;;;;;;;;;;;;;;;107456;1253;61675;-80
2024/01/02 09:22:54;;;;;;;;;;;;;;;;;;107084;1253;61395;-80
2024/01/02 09:25:21;;;;;;;;;;;;;;;;;;107145;1253;60557;-80
2024/01/02 09:27:47;;;;;;;;;;;;;;;;;;106632;1253;61826;-80
2024/01/02 09:30:14;;;;;;;;;;;;;;;;;;106669;1253;60537;-81
2024/01/02 09:32:40;;;;;;;;;;;;;;;;;;106896;1253;60625;-81
2024/01/02 09:35:07;;;;;;;;;;;;;;;;;;107247;1253;62137;-80
2024/01/02 09:37:33;;;;;;;;;;;;;;;;;;107300;1253;62783;-80
2024/01/02 09:39:59;;;;;;;;;;;;;;;;;;107200;1253;61626;-81
2024/01/02 09:42:26;;;;;;;;;;;;;;;;;;107240;1253;62548;-80
2024/01/02 09:44:53;;;;;;;;;;;;;;;;;;107231;1254;63039;-80
2024/01/02 09:47:19;;;;;;;;;;;;;;;;;;107167;1253;62850;-80
2024/01/02 09:49:46;;;;;;;;;;;;;;;;;;107015;1253;62903;-80
2024/01/02 09:52:12;;;;;;;;;;;;;;;;;;107503;1253;61603;-80
2024/01/02 09:54:39;;;;;;;;;;;;;;;;;;107187;1252;61738;-80
2024/01/02 09:57:05;;;;;;;;;;;;;;;;;;107255;1254;60654;-80
2024/01/02 09:59:32;;;;;;;;;;;;;;;;;;107586;1253;60761;-80
2024/01/02 10:01:58;;;;;;;;;;;;;;;;;;108053;1253;60573;-80
2024/01/02 10:04:30;;;;;;;;;;;;;;;;;;108101;1254;60537;-80
2024/01/02 10:06:56;;;;;;;;;;;;;;;;;;108400;1254;63750;-80
2024/01/02 10:09:23;;;;;;;;;;;;;;;;;;108551;1252;60513;-80
2024/01/02 10:11:49;;;;;;;;;;;;;;;;;;107770;1253;60701;-81
2024/01/02 10:14:16;;;;;;;;;;;;;;;;;;107668;1253;60569;-80
2024/01/02 10:16:42;;;;;;;;;;;;;;;;;;107957;1254;60583;-81
2024/01/02 10:19:09;;;;;;;;;;;;;;;;;;107837;1252;60144;-81
2024/01/02 10:21:36;;;;;;;;;;;;;;;;;;107731;1253;62305;-81
2024/01/02 10:24:02;;;;;;;;;;;;;;;;;;107541;1254;60574;-81
2024/01/02 10:26:28;;;;;;;;;;;;;;;;;;107632;1253;59978;-80
2024/01/02 10:28:55;;;;;;;;;;;;;;;;;;107674;1253;61682;-80
2024/01/02 10:31:23;;;;;;;;;;;;;;;;;;107566;1254;60809;-80
2024/01/02 10:33:50;;;;;;;;;;;;;;;;;;107274;1253;60633;-83
2024/01/02 10:36:17;;;;;;;;;;;;;;;;;;107393;1252;60004;-81
2024/01/02 10:38:43;;;;;;;;;;;;;;;;;;107301;1253;60812;-80
2024/01/02 10:41:09;;;;;;;;;;;;;;;;;;106823;1253;60800;-80
2024/01/02 10:43:36;;;;;;;;;;;;;;;;;;106780;1256;60571;-81
2024/01/02 10:46:02;;;;;;;;;;;;;;;;;;107399;1253;61757;-80
2024/01/02 10:48:29;;;;;;;;;;;;;;;;;;107160;1253;60584;-80
2024/01/02 10:50:56;;;;;;;;;;;;;;;;;;107294;1253;60554;-80
2024/01/02 10:53:22;;;;;;;;;;;;;;;;;;107313;1252;60590;-80
2024/01/02 10:55:49;;;;;;;;;;;;;;;;;;107255;1254;60544;-80
2024/01/02 10:58:17;;;;;;;;;;;;;;;;;;107225;1256;60159;-81
2024/01/02 11:00:45;;;;;;;;;;;;;;;;;;107214;1256;60784;-80
2024/01/02 11:03:11;;;;;;;;;;;;;;;;;;107203;1256;60553;-80
2024/01/02 11:05:38;;;;;;;;;;;;;;;;;;107330;1253;60624;-80
2024/01/02 11:08:04;;;;;;;;;;;;;;;;;;107174;1254;62907;-81
2024/01/02 11:10:31;;;;;;;;;;;;;;;;;;107177;1253;62933;-81
2024/01/02 11:12:57;;;;;;;;;;;;;;;;;;107301;1254;62702;-81
2024/01/02 11:15:23;;;;;;;;;;;;;;;;;;107266;1254;60693;-81
2024/01/02 11:17:50;;;;;;;;;;;;;;;;;;107197;1254;60622;-80
2024/01/02 11:20:18;;;;;;;;;;;;;;;;;;107141;1254;60433;-81
2024/01/02 11:22:45;;;;;;;;;;;;;;;;;;107297;1253;60543;-81
2024/01/02 11:25:11;;;;;;;;;;;;;;;;;;107210;1254;60496;-81
2024/01/02 11:27:38;;;;;;;;;;;;;;;;;;107252;1253;61720;-81
2024/01/02 11:30:05;;;;;;;;;;;;;;;;;;107215;1253;60495;-81
2024/01/02 11:32:32;;;;;;;;;;;;;;;;;;107235;1254;62485;-81
2024/01/02 11:35:00;;;;;;;;;;;;;;;;;;107137;1252;60607;-79
2024/01/02 11:37:26;;;;;;;;;;;;;;;;;;107382;1252;61516;-81
2024/01/02 11:39:53;;;;;;;;;;;;;;;;;;107242;1256;61787;-80
2024/01/02 11:42:19;;;;;;;;;;;;;;;;;;107273;1253;61798;-82
2024/01/02 11:44:45;;;;;;;;;;;;;;;;;;106690;1254;60567;-80
2024/01/02 11:47:12;;;;;;;;;;;;;;;;;;107115;1256;61152;-81
2024/01/02 11:49:38;;;;;;;;;;;;;;;;;;107118;1252;60058;-80
2024/01/02 11:52:14;;;;;;;;;;;;;;;;;;107149;1253;61882;-81
2024/01/02 11:54:41;;;;;;;;;;;;;;;;;;106877;1254;62115;-81
2024/01/02 11:57:08;;;;;;;;;;;;;;;;;;107193;1253;62973;-81
2024/01/02 11:59:34;;;;;;;;;;;;;;;;;;107231;1256;60141;-80
2024/01/02 12:02:00;;;;;;;;;;;;;;;;;;107111;1252;60576;-81
2024/01/02 12:04:28;;;;;;;;;;;;;;;;;;107192;1254;60633;-80
2024/01/02 12:06:55;;;;;;;;;;;;;;;;;;106769;1253;61525;-81
2024/01/02 12:09:22;;;;;;;;;;;;;;;;;;106730;1253;62395;-80
2024/01/02 12:11:48;;;;;;;;;;;;;;;;;;106792;1256;60033;-80
2024/01/02 12:14:14;;;;;;;;;;;;;;;;;;106837;1252;61434;-81
2024/01/02 12:16:41;;;;;;;;;;;;;;;;;;106775;1252;61811;-81
2024/01/02 12:19:07;;;;;;;;;;;;;;;;;;106782;1253;61734;-81
2024/01/02 12:21:33;;;;;;;;;;;;;;;;;;106666;1254;61598;-81
2024/01/02 12:24:01;;;;;;;;;;;;;;;;;;106613;1254;60629;-81
2024/01/02 12:26:28;;;;;;;;;;;;;;;;;;106568;1253;61413;-80
2024/01/02 12:28:54;;;;;;;;;;;;;;;;;;106604;1252;60608;-81
2024/01/02 12:31:21;;;;;;;;;;;;;;;;;;107249;1251;59847;-81
2024/01/02 12:33:47;;;;;;;;;;;;;;;;;;107314;1254;59847;-82
2024/01/02 12:36:14;;;;;;;;;;;;;;;;;;106993;1253;60169;-81
2024/01/02 12:38:40;;;;;;;;;;;;;;;;;;107158;1252;62376;-80
2024/01/02 12:41:06;;;;;;;;;;;;;;;;;;107137;1254;60633;-80
2024/01/02 12:43:33;;;;;;;;;;;;;;;;;;107098;1253;60647;-81
2024/01/02 12:45:59;;;;;;;;;;;;;;;;;;107070;1254;60067;-81
2024/01/02 12:48:26;;;;;;;;;;;;;;;;;;107157;1254;61683;-81
2024/01/02 12:50:52;;;;;;;;;;;;;;;;;;107204;1253;60074;-80
2024/01/02 12:53:19;;;;;;;;;;;;;;;;;;106687;1254;60435;-80
2024/01/02 12:55:45;;;;;;;;;;;;;;;;;;106697;1252;60626;-81
2024/01/02 12:58:11;;;;;;;;;;;;;;;;;;107398;1253;61624;-81
2024/01/02 13:00:38;;;;;;;;;;;;;;;;;;107558;1253;60573;-80
2024/01/02 13:03:04;;;;;;;;;;;;;;;;;;107627;1254;60490;-80
2024/01/02 13:05:31;;;;;;;;;;;;;;;;;;107544;1254;60366;-81
2024/01/02 13:07:57;;;;;;;;;;;;;;;;;;107588;1252;60638;-81
2024/01/02 13:10:24;;;;;;;;;;;;;;;;;;107513;1254;61459;-80
2024/01/02 13:12:53;;;;;;;;;;;;;;;;;;107433;1253;60544;-82
2024/01/02 13:15:20;;;;;;;;;;;;;;;;;;107245;1252;60534;-81
2024/01/02 13:17:46;;;;;;;;;;;;;;;;;;107084;1254;62109;-81
2024/01/02 13:20:13;;;;;;;;;;;;;;;;;;107146;1253;62844;-82
2024/01/02 13:22:40;;;;;;;;;;;;;;;;;;107214;1253;63707;-81
2024/01/02 13:25:06;;;;;;;;;;;;;;;;;;107199;1254;60194;-80
2024/01/02 13:27:32;;;;;;;;;;;;;;;;;;107162;1254;60562;-81
2024/01/02 13:29:59;;;;;;;;;;;;;;;;;;107061;1254;60914;-80
2024/01/02 13:32:25;;;;;;;;;;;;;;;;;;107272;1254;60712;-81
2024/01/02 13:34:53;;;;;;;;;;;;;;;;;;107108;1252;59923;-81
2024/01/02 13:37:22;;;;;;;;;;;;;;;;;;107186;1253;60493;-81
2024/01/02 13:39:49;;;;;;;;;;;;;;;;;;107240;1253;61868;-81
2024/01/02 13:42:15;;;;;;;;;;;;;;;;;;107262;1254;60643;-80
2024/01/02 13:44:42;;;;;;;;;;;;;;;;;;107212;1254;60435;-81
2024/01/02 13:47:08;;;;;;;;;;;;;;;;;;107129;1254;60480;-81
2024/01/02 13:49:35;;;;;;;;;;;;;;;;;;107042;1253;60706;-81
2024/01/02 13:52:01;;;;;;;;;;;;;;;;;;107116;1253;60620;-81
2024/01/02 13:54:28;;;;;;;;;;;;;;;;;;107329;1256;60015;-81
2024/01/02 13:56:54;;;;;;;;;;;;;;;;;;107168;1253;60723;-81
2024/01/02 13:59:20;;;;;;;;;;;;;;;;;;107140;1254;60391;-81
2024/01/02 14:01:47;;;;;;;;;;;;;;;;;;107056;1254;61584;-81
2024/01/02 14:04:13;;;;;;;;;;;;;;;;;;107299;1253;60644;-81
2024/01/02 14:06:40;;;;;;;;;;;;;;;;;;107117;1254;60647;-80
2024/01/02 14:09:06;;;;;;;;;;;;;;;;;;107130;1253;60696;-81
2024/01/02 14:11:33;;;;;;;;;;;;;;;;;;107165;1254;61858;-80
2024/01/02 14:13:59;;;;;;;;;;;;;;;;;;107206;1254;61851;-81
2024/01/02 14:16:25;;;;;;;;;;;;;;;;;;107005;1254;61629;-81
2024/01/02 14:18:52;;;;;;;;;;;;;;;;;;106908;1254;62247;-81
2024/01/02 14:21:18;;;;;;;;;;;;;;;;;;107111;1254;60362;-80
2024/01/02 14:23:45;;;;;;;;;;;;;;;;;;107073;1253;61566;-81
2024/01/02 14:26:11;;;;;;;;;;;;;;;;;;107081;1254;59975;-81
2024/01/02 14:28:38;;;;;;;;;;;;;;;;;;106877;1254;60651;-81
2024/01/02 14:31:04;;;;;;;;;;;;;;;;;;107012;1254;60642;-81
2024/01/02 14:33:30;;;;;;;;;;;;;;;;;;107025;1253;62844;-80
2024/01/02 14:35:57;;;;;;;;;;;;;;;;;;107047;1254;62350;-80
2024/01/02 14:38:23;;;;;;;;;;;;;;;;;;107205;1253;62821;-81
2024/01/02 14:40:49;;;;;;;;;;;;;;;;;;107208;1254;60598;-82
2024/01/02 14:43:16;;;;;;;;;;;;;;;;;;107157;1253;61697;-81
2024/01/02 14:45:42;;;;;;;;;;;;;;;;;;107152;1254;61658;-81
2024/01/02 14:48:08;;;;;;;;;;;;;;;;;;107123;1253;60015;-82
2024/01/02 14:50:35;;;;;;;;;;;;;;;;;;106996;1254;60621;-81
2024/01/02 14:53:01;;;;;;;;;;;;;;;;;;107102;1253;60606;-81
2024/01/02 14:55:29;;;;;;;;;;;;;;;;;;107562;1254;61450;-80
2024/01/02 14:57:56;;;;;;;;;;;;;;;;;;106890;1254;61689;-80
2024/01/02 15:00:23;;;;;;;;;;;;;;;;;;106724;1254;61721;-81
2024/01/02 15:02:49;;;;;;;;;;;;;;;;;;106711;1254;61224;-81
2024/01/02 15:05:15;;;;;;;;;;;;;;;;;;106874;1256;60557;-81
2024/01/02 15:07:42;;;;;;;;;;;;;;;;;;106764;1253;60696;-80
2024/01/02 15:10:08;;;;;;;;;;;;;;;;;;106532;1255;60627;-80
2024/01/02 15:12:35;;;;;;;;;;;;;;;;;;106458;1254;61726;-80
2024/01/02 15:15:03;;;;;;;;;;;;;;;;;;106585;1254;60631;-81
2024/01/02 15:17:30;;;;;;;;;;;;;;;;;;106515;1254;60669;-81
2024/01/02 15:19:56;;;;;;;;;;;;;;;;;;108216;1254;61768;-81
2024/01/02 15:22:22;;;;;;;;;;;;;;;;;;106918;1252;60486;-81
2024/01/02 15:24:49;;;;;;;;;;;;;;;;;;106808;1253;60548;-80
2024/01/02 15:27:16;;;;;;;;;;;;;;;;;;106966;1256;60224;-81
2024/01/02 15:29:43;;;;;;;;;;;;;;;;;;106764;1254;61612;-80
2024/01/02 15:32:09;;;;;;;;;;;;;;;;;;106908;1254;62860;-80
2024/01/02 15:34:37;;;;;;;;;;;;;;;;;;109490;1252;59645;-80
2024/01/02 15:37:03;;;;;;;;;;;;;;;;;;107108;1253;62435;-82
2024/01/02 15:39:30;;;;;;;;;;;;;;;;;;106594;1254;61597;-80
2024/01/02 15:41:57;;;;;;;;;;;;;;;;;;106511;1254;61906;-80
2024/01/02 15:44:23;;;;;;;;;;;;;;;;;;106917;1254;62844;-81
2024/01/02 15:46:50;;;;;;;;;;;;;;;;;;107064;1254;60572;-80
2024/01/02 15:49:16;;;;;;;;;;;;;;;;;;106590;1254;60703;-80
2024/01/02 15:51:43;;;;;;;;;;;;;;;;;;106471;1253;60580;-81
2024/01/02 15:54:09;;;;;;;;;;;;;;;;;;106450;1254;60112;-81
2024/01/02 15:56:35;;;;;;;;;;;;;;;;;;106621;1254;60570;-80
2024/01/02 15:59:02;;;;;;;;;;;;;;;;;;106497;1254;60618;-80
2024/01/02 16:01:29;;;;;;;;;;;;;;;;;;106554;1256;60644;-80
2024/01/02 16:03:56;;;;;;;;;;;;;;;;;;106605;1254;60651;-81
2024/01/02 16:06:22;;;;;;;;;;;;;;;;;;106615;1254;61698;-81
2024/01/02 16:08:50;;;;;;;;;;;;;;;;;;106455;1254;60376;-81
2024/01/02 16:11:16;;;;;;;;;;;;;;;;;;106524;1256;60616;-81
2024/01/02 16:13:43;;;;;;;;;;;;;;;;;;106539;1253;61626;-81
2024/01/02 16:16:09;;;;;;;;;;;;;;;;;;106481;1254;60550;-81
2024/01/02 16:18:35;;;;;;;;;;;;;;;;;;106547;1253;60586;-81
2024/01/02 16:21:02;;;;;;;;;;;;;;;;;;106488;1254;62779;-81
2024/01/02 16:23:28;;;;;;;;;;;;;;;;;;107084;1252;60637;-81